createdAt,value
2023-03-06T00:00:36.201Z,0.00
2023-03-06T00:01:36.201Z,0.00
2023-03-06T00:02:36.202Z,0.00
2023-03-06T00:03:36.224Z,0.00
2023-03-06T00:04:36.167Z,0.00
2023-03-06T00:05:36.190Z,0.00
2023-03-06T00:06:36.158Z,0.00
2023-03-06T00:07:36.146Z,0.00
2023-03-06T00:08:36.129Z,0.00
2023-03-06T00:09:36.122Z,0.00
2023-03-06T00:10:36.119Z,0.00
2023-03-06T00:11:36.095Z,0.00
2023-03-06T00:12:36.105Z,0.00
2023-03-06T00:13:36.082Z,0.00
2023-03-06T00:14:36.074Z,0.00
2023-03-06T00:15:36.059Z,0.00
2023-03-06T00:16:36.066Z,0.00
2023-03-06T00:17:36.074Z,0.00
2023-03-06T00:18:36.030Z,0.00
2023-03-06T00:19:36.010Z,0.00
2023-03-06T00:20:36.071Z,0.00
2023-03-06T00:21:36.028Z,0.00
2023-03-06T00:22:35.982Z,0.00
2023-03-06T00:23:36.006Z,0.00
2023-03-06T00:24:35.970Z,0.00
2023-03-06T00:25:35.951Z,0.00
2023-03-06T00:26:35.977Z,0.00
2023-03-06T00:27:35.936Z,0.00
2023-03-06T00:28:35.943Z,0.00
2023-03-06T00:29:35.915Z,0.00
2023-03-06T00:30:35.912Z,0.00
2023-03-06T00:31:35.929Z,0.00
2023-03-06T00:32:35.968Z,0.00
2023-03-06T00:33:35.865Z,0.00
2023-03-06T00:34:36.352Z,0.00
2023-03-06T00:35:35.945Z,0.00
2023-03-06T00:36:43.953Z,0.00
2023-03-06T00:37:36.501Z,0.00
2023-03-06T00:38:36.502Z,0.00
2023-03-06T00:39:35.818Z,0.00
2023-03-06T00:40:35.806Z,0.00
2023-03-06T00:41:35.792Z,0.00
2023-03-06T00:42:35.777Z,0.00
2023-03-06T00:43:35.758Z,0.00
2023-03-06T00:44:35.765Z,0.00
2023-03-06T00:45:35.778Z,0.00
2023-03-06T00:46:35.745Z,0.00
2023-03-06T00:47:35.719Z,0.00
2023-03-06T00:48:35.751Z,0.00
2023-03-06T00:49:35.712Z,0.00
2023-03-06T00:50:35.712Z,0.00
2023-03-06T00:51:35.678Z,0.00
2023-03-06T00:52:35.696Z,0.00
2023-03-06T00:53:35.668Z,0.00
2023-03-06T00:54:35.654Z,0.00
2023-03-06T00:55:35.644Z,0.00
2023-03-06T00:56:35.673Z,0.00
2023-03-06T00:57:35.615Z,0.00
2023-03-06T00:58:35.635Z,0.00
2023-03-06T00:59:35.608Z,0.00
2023-03-06T01:00:35.705Z,0.00
2023-03-06T01:01:35.641Z,0.00
2023-03-06T01:02:35.704Z,0.00
2023-03-06T01:03:35.582Z,0.00
2023-03-06T01:04:35.560Z,0.00
2023-03-06T01:05:35.529Z,0.00
2023-03-06T01:06:35.546Z,0.00
2023-03-06T01:07:35.515Z,0.00
2023-03-06T01:08:35.521Z,0.00
2023-03-06T01:09:35.519Z,0.00
2023-03-06T01:10:35.511Z,0.00
2023-03-06T01:11:35.470Z,0.00
2023-03-06T01:12:35.483Z,0.00
2023-03-06T01:13:35.462Z,0.00
2023-03-06T01:14:35.460Z,0.00
2023-03-06T01:15:35.439Z,0.00
2023-03-06T01:16:35.453Z,0.00
2023-03-06T01:17:35.412Z,0.00
2023-03-06T01:18:35.409Z,0.00
2023-03-06T01:19:35.382Z,0.00
2023-03-06T01:20:35.387Z,0.00
2023-03-06T01:21:35.402Z,0.00
2023-03-06T01:22:35.364Z,0.00
2023-03-06T01:23:35.352Z,0.00
2023-03-06T01:24:35.363Z,0.00
2023-03-06T01:25:35.338Z,0.00
2023-03-06T01:26:35.338Z,0.00
2023-03-06T01:27:35.322Z,0.00
2023-03-06T01:28:35.333Z,0.00
2023-03-06T01:29:35.281Z,0.00
2023-03-06T01:30:35.289Z,0.00
2023-03-06T01:31:35.335Z,0.00
2023-03-06T01:32:35.327Z,0.00
2023-03-06T01:33:35.240Z,0.00
2023-03-06T01:34:35.302Z,0.00
2023-03-06T01:35:35.306Z,0.00
2023-03-06T01:36:35.233Z,0.00
2023-03-06T01:37:35.223Z,0.00
2023-03-06T01:38:35.213Z,0.00
2023-03-06T01:39:35.193Z,0.00
2023-03-06T01:40:35.206Z,0.00
2023-03-06T01:41:35.213Z,0.00
2023-03-06T01:42:35.175Z,0.00
2023-03-06T01:43:35.173Z,0.00
2023-03-06T01:44:35.162Z,0.00
2023-03-06T01:45:35.252Z,0.00
2023-03-06T01:46:35.167Z,0.00
2023-03-06T01:47:35.136Z,0.00
2023-03-06T01:48:35.104Z,0.00
2023-03-06T01:49:42.601Z,0.00
2023-03-06T01:50:35.082Z,0.00
2023-03-06T01:51:35.766Z,0.00
2023-03-06T01:52:35.080Z,0.00
2023-03-06T01:53:35.051Z,0.00
2023-03-06T01:54:35.054Z,0.00
2023-03-06T01:55:35.033Z,0.00
2023-03-06T01:56:35.029Z,0.00
2023-03-06T01:57:35.018Z,0.00
2023-03-06T01:58:35.005Z,0.00
2023-03-06T01:59:34.982Z,0.00
2023-03-06T02:00:34.981Z,0.00
2023-03-06T02:01:34.984Z,0.00
2023-03-06T02:02:35.028Z,0.00
2023-03-06T02:03:34.958Z,0.00
2023-03-06T02:04:34.960Z,0.00
2023-03-06T02:05:34.939Z,0.00
2023-03-06T02:06:34.927Z,0.00
2023-03-06T02:07:34.940Z,0.00
2023-03-06T02:08:34.931Z,0.00
2023-03-06T02:09:34.913Z,0.00
2023-03-06T02:10:34.868Z,0.00
2023-03-06T02:11:34.924Z,0.00
2023-03-06T02:12:34.876Z,0.00
2023-03-06T02:13:34.866Z,0.00
2023-03-06T02:14:34.868Z,0.00
2023-03-06T02:15:34.846Z,0.00
2023-03-06T02:16:34.857Z,0.00
2023-03-06T02:17:34.828Z,0.00
2023-03-06T02:18:34.797Z,0.00
2023-03-06T02:19:34.810Z,0.00
2023-03-06T02:20:34.805Z,0.00
2023-03-06T02:21:34.773Z,0.00
2023-03-06T02:22:34.800Z,0.00
2023-03-06T02:23:34.764Z,0.00
2023-03-06T02:24:34.755Z,0.00
2023-03-06T02:25:34.741Z,0.00
2023-03-06T02:26:34.713Z,0.00
2023-03-06T02:27:34.739Z,0.00
2023-03-06T02:28:34.705Z,0.00
2023-03-06T02:29:34.762Z,0.00
2023-03-06T02:30:34.755Z,0.00
2023-03-06T02:31:34.705Z,0.00
2023-03-06T02:32:34.751Z,0.00
2023-03-06T02:33:34.680Z,0.00
2023-03-06T02:34:34.623Z,0.00
2023-03-06T02:35:34.679Z,0.00
2023-03-06T02:36:34.636Z,0.00
2023-03-06T02:37:34.622Z,0.00
2023-03-06T02:38:34.614Z,0.00
2023-03-06T02:39:34.658Z,0.00
2023-03-06T02:40:34.593Z,0.00
2023-03-06T02:41:34.590Z,0.00
2023-03-06T02:42:34.557Z,0.00
2023-03-06T02:43:34.578Z,0.00
2023-03-06T02:44:34.580Z,0.00
2023-03-06T02:45:34.543Z,0.00
2023-03-06T02:46:34.583Z,0.00
2023-03-06T02:47:34.527Z,0.00
2023-03-06T02:48:34.506Z,0.00
2023-03-06T02:49:34.507Z,0.00
2023-03-06T02:50:34.468Z,0.00
2023-03-06T02:51:34.481Z,0.00
2023-03-06T02:52:34.511Z,0.00
2023-03-06T02:53:34.444Z,0.00
2023-03-06T02:54:34.464Z,0.00
2023-03-06T02:55:34.443Z,0.00
2023-03-06T02:56:34.406Z,0.00
2023-03-06T02:57:34.401Z,0.00
2023-03-06T02:58:34.368Z,0.00
2023-03-06T02:59:34.377Z,0.00
2023-03-06T03:00:34.389Z,0.00
2023-03-06T03:01:34.453Z,0.00
2023-03-06T03:02:40.854Z,0.00
2023-03-06T03:03:34.970Z,0.00
2023-03-06T03:04:35.004Z,0.00
2023-03-06T03:05:34.927Z,0.00
2023-03-06T03:06:34.335Z,0.00
2023-03-06T03:07:34.304Z,0.00
2023-03-06T03:08:34.300Z,0.00
2023-03-06T03:09:34.284Z,0.00
2023-03-06T03:10:34.278Z,0.00
2023-03-06T03:11:34.306Z,0.00
2023-03-06T03:12:34.263Z,0.00
2023-03-06T03:13:34.253Z,0.00
2023-03-06T03:14:34.209Z,0.00
2023-03-06T03:15:34.254Z,0.00
2023-03-06T03:16:34.196Z,0.00
2023-03-06T03:17:34.187Z,0.00
2023-03-06T03:18:34.218Z,0.00
2023-03-06T03:19:34.205Z,0.00
2023-03-06T03:20:34.202Z,0.00
2023-03-06T03:21:34.179Z,0.00
2023-03-06T03:22:34.160Z,0.00
2023-03-06T03:23:34.147Z,0.00
2023-03-06T03:24:34.166Z,0.00
2023-03-06T03:25:34.133Z,0.00
2023-03-06T03:26:34.113Z,0.00
2023-03-06T03:27:34.110Z,0.00
2023-03-06T03:28:34.082Z,0.00
2023-03-06T03:29:34.083Z,0.00
2023-03-06T03:30:34.093Z,0.00
2023-03-06T03:31:34.115Z,0.00
2023-03-06T03:32:34.056Z,0.00
2023-03-06T03:33:34.026Z,0.00
2023-03-06T03:34:34.051Z,0.00
2023-03-06T03:35:34.048Z,0.00
2023-03-06T03:36:34.004Z,0.00
2023-03-06T03:37:33.997Z,0.00
2023-03-06T03:38:34.005Z,0.00
2023-03-06T03:39:34.011Z,0.00
2023-03-06T03:40:33.961Z,0.00
2023-03-06T03:41:33.984Z,0.00
2023-03-06T03:42:33.938Z,0.00
2023-03-06T03:43:33.936Z,0.00
2023-03-06T03:44:33.913Z,0.00
2023-03-06T03:45:33.961Z,0.00
2023-03-06T03:46:33.987Z,0.00
2023-03-06T03:47:33.923Z,0.00
2023-03-06T03:48:33.870Z,0.00
2023-03-06T03:49:33.894Z,0.00
2023-03-06T03:50:33.911Z,0.00
2023-03-06T03:51:33.858Z,0.00
2023-03-06T03:52:33.865Z,0.00
2023-03-06T03:53:33.843Z,0.00
2023-03-06T03:54:33.824Z,0.00
2023-03-06T03:55:33.811Z,0.00
2023-03-06T03:56:33.805Z,0.00
2023-03-06T03:57:33.919Z,0.00
2023-03-06T03:58:33.825Z,0.00
2023-03-06T03:59:33.794Z,0.00
2023-03-06T04:00:33.754Z,0.00
2023-03-06T04:01:33.772Z,0.00
2023-03-06T04:02:33.939Z,0.00
2023-03-06T04:03:33.778Z,0.00
2023-03-06T04:04:33.733Z,0.00
2023-03-06T04:05:33.701Z,0.00
2023-03-06T04:06:33.792Z,0.00
2023-03-06T04:07:33.701Z,0.00
2023-03-06T04:08:33.697Z,0.00
2023-03-06T04:09:33.695Z,0.00
2023-03-06T04:10:33.642Z,0.00
2023-03-06T04:11:33.698Z,0.00
2023-03-06T04:12:33.660Z,0.00
2023-03-06T04:13:33.732Z,0.00
2023-03-06T04:14:33.646Z,0.00
2023-03-06T04:15:33.636Z,0.00
2023-03-06T04:16:33.692Z,0.00
2023-03-06T04:17:33.575Z,0.00
2023-03-06T04:18:33.588Z,0.00
2023-03-06T04:19:33.590Z,0.00
2023-03-06T04:20:33.564Z,0.00
2023-03-06T04:21:33.879Z,0.00
2023-03-06T04:22:33.552Z,0.00
2023-03-06T04:23:33.567Z,0.00
2023-03-06T04:24:33.558Z,0.00
2023-03-06T04:25:33.491Z,0.00
2023-03-06T04:26:33.485Z,0.00
2023-03-06T04:27:33.532Z,0.00
2023-03-06T04:28:33.496Z,0.00
2023-03-06T04:29:33.473Z,0.00
2023-03-06T04:30:33.485Z,0.00
2023-03-06T04:31:33.520Z,0.00
2023-03-06T04:32:33.489Z,0.00
2023-03-06T04:33:33.422Z,0.00
2023-03-06T04:34:33.403Z,0.00
2023-03-06T04:35:33.493Z,0.00
2023-03-06T04:36:33.420Z,0.00
2023-03-06T04:37:33.424Z,0.00
2023-03-06T04:38:33.395Z,0.00
2023-03-06T04:39:33.389Z,0.00
2023-03-06T04:40:33.365Z,0.00
2023-03-06T04:41:33.351Z,0.00
2023-03-06T04:42:33.346Z,0.00
2023-03-06T04:43:33.330Z,0.00
2023-03-06T04:44:33.330Z,0.00
2023-03-06T04:45:33.361Z,0.00
2023-03-06T04:46:33.309Z,0.00
2023-03-06T04:47:33.319Z,0.00
2023-03-06T04:48:33.257Z,0.00
2023-03-06T04:49:33.258Z,0.00
2023-03-06T04:50:33.248Z,0.00
2023-03-06T04:51:33.287Z,0.00
2023-03-06T04:52:33.266Z,0.00
2023-03-06T04:53:33.250Z,0.00
2023-03-06T04:54:33.211Z,0.00
2023-03-06T04:55:33.216Z,0.00
2023-03-06T04:56:33.199Z,0.00
2023-03-06T04:57:33.187Z,0.00
2023-03-06T04:58:33.197Z,0.00
2023-03-06T04:59:33.218Z,0.00
2023-03-06T05:00:33.169Z,0.00
2023-03-06T05:01:33.143Z,0.00
2023-03-06T05:02:33.182Z,0.00
2023-03-06T05:03:33.189Z,0.00
2023-03-06T05:04:33.121Z,0.00
2023-03-06T05:05:33.128Z,0.00
2023-03-06T05:06:33.082Z,0.00
2023-03-06T05:07:33.080Z,0.00
2023-03-06T05:08:33.073Z,0.00
2023-03-06T05:09:33.054Z,0.00
2023-03-06T05:10:33.286Z,0.00
2023-03-06T05:11:33.039Z,0.00
2023-03-06T05:12:33.036Z,0.00
2023-03-06T05:13:33.032Z,0.00
2023-03-06T05:14:33.060Z,0.00
2023-03-06T05:15:33.008Z,0.00
2023-03-06T05:16:33.081Z,0.00
2023-03-06T05:17:32.983Z,0.00
2023-03-06T05:18:32.936Z,1.00
2023-03-06T05:19:32.973Z,0.00
2023-03-06T05:20:32.961Z,0.00
2023-03-06T05:21:32.953Z,0.00
2023-03-06T05:22:32.914Z,0.00
2023-03-06T05:23:32.912Z,0.00
2023-03-06T05:24:32.928Z,0.00
2023-03-06T05:25:32.904Z,0.00
2023-03-06T05:26:32.874Z,0.00
2023-03-06T05:27:32.868Z,0.00
2023-03-06T05:28:32.900Z,0.00
2023-03-06T05:29:32.856Z,0.00
2023-03-06T05:30:32.835Z,0.00
2023-03-06T05:31:32.942Z,0.00
2023-03-06T05:32:35.376Z,0.00
2023-03-06T05:33:32.808Z,0.00
2023-03-06T05:34:32.808Z,0.00
2023-03-06T05:35:32.908Z,0.00
2023-03-06T05:36:32.778Z,0.00
2023-03-06T05:37:32.772Z,0.00
2023-03-06T05:38:32.745Z,0.00
2023-03-06T05:39:32.791Z,0.00
2023-03-06T05:40:32.764Z,0.00
2023-03-06T05:41:32.771Z,0.00
2023-03-06T05:42:32.749Z,0.00
2023-03-06T05:43:32.664Z,1.00
2023-03-06T05:44:32.661Z,1.00
2023-03-06T05:45:32.684Z,1.00
2023-03-06T05:46:32.629Z,1.00
2023-03-06T05:47:32.630Z,1.00
2023-03-06T05:48:32.593Z,2.00
2023-03-06T05:49:32.599Z,2.00
2023-03-06T05:50:32.579Z,2.00
2023-03-06T05:51:32.574Z,3.00
2023-03-06T05:52:32.557Z,3.00
2023-03-06T05:53:32.556Z,4.00
2023-03-06T05:54:32.556Z,4.00
2023-03-06T05:55:32.565Z,3.00
2023-03-06T05:56:32.569Z,7.00
2023-03-06T05:57:32.518Z,6.00
2023-03-06T05:58:32.547Z,10.00
2023-03-06T05:59:32.485Z,8.00
2023-03-06T06:00:32.479Z,7.00
2023-03-06T06:01:32.496Z,3.00
2023-03-06T06:02:32.534Z,13.00
2023-03-06T06:03:32.460Z,8.00
2023-03-06T06:04:32.481Z,11.00
2023-03-06T06:05:32.441Z,11.00
2023-03-06T06:06:32.462Z,17.00
2023-03-06T06:07:32.419Z,19.00
2023-03-06T06:08:32.386Z,25.00
2023-03-06T06:09:32.400Z,26.00
2023-03-06T06:10:32.368Z,30.00
2023-03-06T06:11:32.426Z,29.00
2023-03-06T06:12:32.344Z,42.00
2023-03-06T06:13:32.352Z,39.00
2023-03-06T06:14:32.355Z,37.00
2023-03-06T06:15:32.395Z,50.00
2023-03-06T06:16:32.306Z,46.00
2023-03-06T06:17:32.318Z,45.00
2023-03-06T06:18:32.293Z,53.00
2023-03-06T06:19:32.296Z,62.00
2023-03-06T06:20:32.307Z,72.00
2023-03-06T06:21:32.259Z,76.00
2023-03-06T06:22:32.268Z,75.00
2023-03-06T06:23:32.237Z,68.00
2023-03-06T06:24:32.277Z,83.00
2023-03-06T06:25:32.237Z,87.00
2023-03-06T06:26:32.260Z,91.00
2023-03-06T06:27:32.213Z,89.00
2023-03-06T06:28:32.222Z,101.00
2023-03-06T06:29:32.187Z,102.00
2023-03-06T06:30:32.235Z,95.00
2023-03-06T06:31:32.244Z,88.00
2023-03-06T06:32:32.270Z,84.00
2023-03-06T06:33:32.164Z,99.00
2023-03-06T06:34:32.141Z,93.00
2023-03-06T06:35:32.136Z,108.00
2023-03-06T06:36:32.120Z,123.00
2023-03-06T06:37:32.122Z,125.00
2023-03-06T06:38:32.106Z,114.00
2023-03-06T06:39:32.096Z,101.00
2023-03-06T06:40:32.105Z,87.00
2023-03-06T06:41:59.803Z,66.00
2023-03-06T06:42:40.289Z,93.00
2023-03-06T06:43:33.634Z,89.00
2023-03-06T06:44:32.052Z,85.00
2023-03-06T06:45:32.010Z,87.00
2023-03-06T06:47:18.139Z,80.00
2023-03-06T06:47:32.071Z,95.00
2023-03-06T06:48:32.009Z,93.00
2023-03-06T06:49:31.995Z,86.00
2023-03-06T06:50:31.968Z,100.00
2023-03-06T06:51:31.992Z,94.00
2023-03-06T06:52:31.955Z,89.00
2023-03-06T06:53:31.921Z,67.00
2023-03-06T06:54:31.946Z,91.00
2023-03-06T06:55:31.962Z,70.00
2023-03-06T06:56:31.905Z,108.00
2023-03-06T06:57:31.950Z,113.00
2023-03-06T06:58:31.886Z,115.00
2023-03-06T06:59:31.888Z,122.00
2023-03-06T07:00:31.902Z,76.00
2023-03-06T07:01:31.873Z,127.00
2023-03-06T07:02:31.868Z,169.00
2023-03-06T07:03:31.898Z,169.00
2023-03-06T07:04:31.835Z,171.00
2023-03-06T07:05:31.852Z,135.00
2023-03-06T07:06:31.834Z,147.00
2023-03-06T07:07:31.832Z,139.00
2023-03-06T07:08:31.787Z,141.00
2023-03-06T07:09:31.773Z,142.00
2023-03-06T07:10:31.774Z,135.00
2023-03-06T07:11:31.781Z,110.00
2023-03-06T07:12:31.758Z,130.00
2023-03-06T07:13:31.797Z,121.00
2023-03-06T07:14:31.738Z,126.00
2023-03-06T07:15:31.727Z,156.00
2023-03-06T07:16:31.728Z,135.00
2023-03-06T07:17:31.690Z,118.00
2023-03-06T07:18:31.708Z,108.00
2023-03-06T07:19:31.696Z,90.00
2023-03-06T07:20:31.684Z,88.00
2023-03-06T07:21:31.657Z,127.00
2023-03-06T07:22:41.461Z,167.00
2023-03-06T07:23:31.661Z,156.00
2023-03-06T07:24:31.639Z,116.00
2023-03-06T07:25:31.625Z,116.00
2023-03-06T07:26:34.497Z,114.00
2023-03-06T07:27:31.622Z,111.00
2023-03-06T07:28:40.103Z,140.00
2023-03-06T07:29:31.578Z,159.00
2023-03-06T07:30:31.638Z,225.00
2023-03-06T07:31:31.585Z,207.00
2023-03-06T07:32:31.681Z,203.00
2023-03-06T07:33:31.534Z,188.00
2023-03-06T07:34:31.544Z,157.00
2023-03-06T07:35:31.580Z,223.00
2023-03-06T07:36:31.528Z,233.00
2023-03-06T07:37:31.485Z,234.00
2023-03-06T07:38:31.491Z,285.00
2023-03-06T07:39:31.515Z,298.00
2023-03-06T07:40:31.461Z,203.00
2023-03-06T07:41:31.468Z,245.00
2023-03-06T07:42:31.471Z,239.00
2023-03-06T07:43:31.441Z,256.00
2023-03-06T07:44:31.429Z,247.00
2023-03-06T07:45:31.436Z,206.00
2023-03-06T07:46:31.514Z,196.00
2023-03-06T07:47:31.411Z,263.00
2023-03-06T07:48:31.398Z,267.00
2023-03-06T07:49:31.381Z,281.00
2023-03-06T07:50:31.399Z,218.00
2023-03-06T07:51:31.385Z,244.00
2023-03-06T07:52:31.340Z,352.00
2023-03-06T07:53:31.346Z,350.00
2023-03-06T07:54:31.482Z,277.00
2023-03-06T07:55:31.338Z,306.00
2023-03-06T07:56:38.423Z,428.00
2023-03-06T07:57:31.317Z,426.00
2023-03-06T07:58:31.916Z,403.00
2023-03-06T07:59:31.277Z,315.00
2023-03-06T08:00:31.272Z,303.00
2023-03-06T08:01:31.254Z,326.00
2023-03-06T08:02:31.309Z,337.00
2023-03-06T08:03:31.291Z,290.00
2023-03-06T08:04:31.263Z,307.00
2023-03-06T08:05:31.221Z,295.00
2023-03-06T08:06:31.208Z,298.00
2023-03-06T08:07:31.185Z,345.00
2023-03-06T08:08:31.214Z,436.00
2023-03-06T08:09:31.165Z,404.00
2023-03-06T08:10:31.187Z,624.00
2023-03-06T08:11:31.161Z,1013.00
2023-03-06T08:12:31.146Z,919.00
2023-03-06T08:13:31.118Z,631.00
2023-03-06T08:14:31.140Z,423.00
2023-03-06T08:15:31.092Z,290.00
2023-03-06T08:16:31.248Z,232.00
2023-03-06T08:17:31.103Z,284.00
2023-03-06T08:18:31.089Z,293.00
2023-03-06T08:19:31.181Z,322.00
2023-03-06T08:20:31.057Z,342.00
2023-03-06T08:21:31.088Z,502.00
2023-03-06T08:22:31.111Z,453.00
2023-03-06T08:23:31.023Z,385.00
2023-03-06T08:24:31.036Z,267.00
2023-03-06T08:25:31.013Z,266.00
2023-03-06T08:26:31.025Z,425.00
2023-03-06T08:27:30.976Z,536.00
2023-03-06T08:28:30.993Z,476.00
2023-03-06T08:29:32.311Z,566.00
2023-03-06T08:30:30.965Z,487.00
2023-03-06T08:31:30.999Z,350.00
2023-03-06T08:32:30.998Z,443.00
2023-03-06T08:33:30.920Z,279.00
2023-03-06T08:34:30.932Z,368.00
2023-03-06T08:35:30.909Z,454.00
2023-03-06T08:36:30.908Z,359.00
2023-03-06T08:37:30.948Z,284.00
2023-03-06T08:38:30.894Z,401.00
2023-03-06T08:39:30.853Z,277.00
2023-03-06T08:40:30.857Z,285.00
2023-03-06T08:41:30.839Z,262.00
2023-03-06T08:42:30.854Z,438.00
2023-03-06T08:43:30.980Z,351.00
2023-03-06T08:44:30.825Z,188.00
2023-03-06T08:45:30.820Z,295.00
2023-03-06T08:46:30.792Z,199.00
2023-03-06T08:47:30.806Z,366.00
2023-03-06T08:48:30.836Z,600.00
2023-03-06T08:49:30.756Z,639.00
2023-03-06T08:50:30.747Z,680.00
2023-03-06T08:51:30.819Z,869.00
2023-03-06T08:52:30.777Z,739.00
2023-03-06T08:53:42.534Z,822.00
2023-03-06T08:54:30.795Z,887.00
2023-03-06T08:55:30.691Z,1258.00
2023-03-06T08:56:30.746Z,1139.00
2023-03-06T08:57:30.758Z,1106.00
2023-03-06T08:58:30.677Z,1179.00
2023-03-06T08:59:30.666Z,1011.00
2023-03-06T09:00:30.681Z,1054.00
2023-03-06T09:01:30.677Z,972.00
2023-03-06T09:02:30.662Z,1263.00
2023-03-06T09:03:30.612Z,1038.00
2023-03-06T09:04:30.607Z,696.00
2023-03-06T09:05:30.587Z,813.00
2023-03-06T09:06:30.584Z,791.00
2023-03-06T09:07:30.602Z,696.00
2023-03-06T09:08:30.591Z,562.00
2023-03-06T09:09:30.592Z,675.00
2023-03-06T09:10:37.153Z,835.00
2023-03-06T09:11:33.079Z,1292.00
2023-03-06T09:12:32.608Z,1502.00
2023-03-06T09:13:30.506Z,1006.00
2023-03-06T09:14:30.534Z,1469.00
2023-03-06T09:15:30.503Z,1328.00
2023-03-06T09:16:30.515Z,1527.00
2023-03-06T09:17:30.480Z,1290.00
2023-03-06T09:18:30.475Z,1595.00
2023-03-06T09:19:30.484Z,1351.00
2023-03-06T09:20:30.446Z,1209.00
2023-03-06T09:21:30.439Z,1052.00
2023-03-06T09:22:30.423Z,1073.00
2023-03-06T09:23:30.428Z,913.00
2023-03-06T09:24:30.418Z,723.00
2023-03-06T09:25:30.388Z,834.00
2023-03-06T09:26:44.967Z,740.00
2023-03-06T09:27:30.392Z,665.00
2023-03-06T09:28:30.512Z,652.00
2023-03-06T09:29:30.350Z,843.00
2023-03-06T09:30:30.379Z,902.00
2023-03-06T09:31:30.432Z,525.00
2023-03-06T09:32:30.346Z,543.00
2023-03-06T09:33:30.306Z,732.00
2023-03-06T09:34:30.309Z,805.00
2023-03-06T09:35:30.332Z,689.00
2023-03-06T09:36:30.278Z,790.00
2023-03-06T09:37:30.256Z,865.00
2023-03-06T09:38:30.275Z,769.00
2023-03-06T09:39:30.252Z,770.00
2023-03-06T09:40:30.265Z,681.00
2023-03-06T09:41:30.221Z,648.00
2023-03-06T09:42:30.223Z,561.00
2023-03-06T09:43:30.211Z,425.00
2023-03-06T09:44:30.214Z,381.00
2023-03-06T09:45:30.186Z,438.00
2023-03-06T09:46:30.242Z,483.00
2023-03-06T09:47:30.225Z,447.00
2023-03-06T09:48:30.157Z,405.00
2023-03-06T09:49:30.157Z,464.00
2023-03-06T09:50:30.151Z,523.00
2023-03-06T09:51:30.117Z,666.00
2023-03-06T09:52:30.145Z,825.00
2023-03-06T09:53:30.096Z,813.00
2023-03-06T09:54:30.139Z,857.00
2023-03-06T09:55:30.107Z,909.00
2023-03-06T09:56:30.074Z,957.00
2023-03-06T09:57:30.101Z,1054.00
2023-03-06T09:58:30.084Z,1192.00
2023-03-06T09:59:30.037Z,1155.00
2023-03-06T10:00:30.033Z,1322.00
2023-03-06T10:01:30.029Z,1324.00
2023-03-06T10:02:30.116Z,1034.00
2023-03-06T10:03:30.102Z,706.00
2023-03-06T10:04:30.058Z,870.00
2023-03-06T10:05:29.986Z,1051.00
2023-03-06T10:06:29.976Z,1195.00
2023-03-06T10:07:29.954Z,1245.00
2023-03-06T10:08:29.948Z,1269.00
2023-03-06T10:09:29.968Z,1235.00
2023-03-06T10:10:29.933Z,1295.00
2023-03-06T10:11:29.908Z,1259.00
2023-03-06T10:12:29.907Z,1131.00
2023-03-06T10:13:29.889Z,1044.00
2023-03-06T10:14:29.910Z,1012.00
2023-03-06T10:15:29.959Z,1191.00
2023-03-06T10:16:29.876Z,1077.00
2023-03-06T10:17:29.868Z,862.00
2023-03-06T10:18:29.861Z,757.00
2023-03-06T10:19:29.837Z,674.00
2023-03-06T10:20:29.833Z,626.00
2023-03-06T10:21:29.833Z,588.00
2023-03-06T10:22:29.824Z,581.00
2023-03-06T10:23:29.802Z,522.00
2023-03-06T10:24:29.781Z,450.00
2023-03-06T10:25:29.784Z,382.00
2023-03-06T10:26:29.911Z,342.00
2023-03-06T10:27:29.773Z,352.00
2023-03-06T10:28:29.750Z,336.00
2023-03-06T10:29:29.725Z,309.00
2023-03-06T10:30:29.742Z,303.00
2023-03-06T10:31:29.766Z,277.00
2023-03-06T10:32:39.508Z,270.00
2023-03-06T10:33:29.707Z,316.00
2023-03-06T10:34:29.695Z,335.00
2023-03-06T10:35:30.789Z,367.00
2023-03-06T10:36:29.660Z,437.00
2023-03-06T10:37:31.019Z,561.00
2023-03-06T10:38:29.668Z,634.00
2023-03-06T10:39:29.651Z,676.00
2023-03-06T10:40:29.638Z,697.00
2023-03-06T10:41:29.621Z,784.00
2023-03-06T10:42:29.592Z,1127.00
2023-03-06T10:43:29.634Z,1414.00
2023-03-06T10:44:29.590Z,1571.00
2023-03-06T10:45:35.185Z,1800.00
2023-03-06T10:46:29.638Z,1968.00
2023-03-06T10:47:29.551Z,1899.00
2023-03-06T10:48:29.606Z,1919.00
2023-03-06T10:49:29.560Z,2015.00
2023-03-06T10:50:29.515Z,2019.00
2023-03-06T10:51:29.533Z,1952.00
2023-03-06T10:52:29.490Z,2079.00
2023-03-06T10:53:29.502Z,2181.00
2023-03-06T10:54:29.510Z,2086.00
2023-03-06T10:55:29.470Z,2123.00
2023-03-06T10:56:29.545Z,2174.00
2023-03-06T10:57:29.496Z,1644.00
2023-03-06T10:58:29.436Z,1980.00
2023-03-06T10:59:29.520Z,1735.00
2023-03-06T11:00:29.445Z,1959.00
2023-03-06T11:01:29.514Z,1615.00
2023-03-06T11:02:29.392Z,1659.00
2023-03-06T11:03:29.435Z,2144.00
2023-03-06T11:04:29.447Z,1610.00
2023-03-06T11:05:29.398Z,1619.00
2023-03-06T11:06:29.394Z,2380.00
2023-03-06T11:07:29.379Z,2309.00
2023-03-06T11:08:29.334Z,3149.00
2023-03-06T11:09:29.428Z,2442.00
2023-03-06T11:10:29.320Z,2178.00
2023-03-06T11:11:37.512Z,2039.00
2023-03-06T11:12:29.338Z,1156.00
2023-03-06T11:13:29.290Z,2186.00
2023-03-06T11:14:29.361Z,2188.00
2023-03-06T11:15:29.329Z,2506.00
2023-03-06T11:16:29.337Z,1764.00
2023-03-06T11:17:29.667Z,1450.00
2023-03-06T11:18:29.241Z,1988.00
2023-03-06T11:19:29.320Z,2081.00
2023-03-06T11:20:35.833Z,2357.00
2023-03-06T11:21:31.403Z,1126.00
2023-03-06T11:22:29.198Z,1896.00
2023-03-06T11:23:29.208Z,2134.00
2023-03-06T11:24:29.180Z,1995.00
2023-03-06T11:25:29.195Z,1268.00
2023-03-06T11:26:29.200Z,1877.00
2023-03-06T11:27:29.146Z,1830.00
2023-03-06T11:28:29.164Z,1855.00
2023-03-06T11:29:29.593Z,1917.00
2023-03-06T11:30:29.140Z,1842.00
2023-03-06T11:31:29.153Z,2004.00
2023-03-06T11:32:29.159Z,1841.00
2023-03-06T11:33:29.127Z,2197.00
2023-03-06T11:34:29.090Z,1713.00
2023-03-06T11:35:29.098Z,1625.00
2023-03-06T11:36:29.106Z,1741.00
2023-03-06T11:37:29.079Z,1557.00
2023-03-06T11:38:29.053Z,1070.00
2023-03-06T11:39:29.039Z,1710.00
2023-03-06T11:40:29.016Z,1764.00
2023-03-06T11:41:29.009Z,1738.00
2023-03-06T11:42:29.016Z,1747.00
2023-03-06T11:43:28.987Z,1732.00
2023-03-06T11:44:28.981Z,1722.00
2023-03-06T11:45:29.006Z,1900.00
2023-03-06T11:46:29.023Z,1940.00
2023-03-06T11:47:28.952Z,2071.00
2023-03-06T11:48:28.930Z,2090.00
2023-03-06T11:49:28.966Z,2025.00
2023-03-06T11:50:28.927Z,2137.00
2023-03-06T11:51:28.927Z,2188.00
2023-03-06T11:52:28.902Z,2275.00
2023-03-06T11:53:28.893Z,2430.00
2023-03-06T11:54:28.884Z,2343.00
2023-03-06T11:55:28.868Z,2440.00
2023-03-06T11:56:31.406Z,2513.00
2023-03-06T11:57:28.855Z,2527.00
2023-03-06T11:58:28.836Z,2586.00
2023-03-06T11:59:28.831Z,2598.00
2023-03-06T12:00:28.838Z,2612.00
2023-03-06T12:01:28.836Z,2585.00
2023-03-06T12:02:28.805Z,2550.00
2023-03-06T12:03:28.813Z,2411.00
2023-03-06T12:04:29.066Z,2339.00
2023-03-06T12:05:28.868Z,2252.00
2023-03-06T12:06:28.751Z,2233.00
2023-03-06T12:07:28.748Z,2224.00
2023-03-06T12:08:28.750Z,2213.00
2023-03-06T12:09:28.737Z,2342.00
2023-03-06T12:10:28.719Z,2390.00
2023-03-06T12:11:29.723Z,3154.00
2023-03-06T12:12:28.725Z,2303.00
2023-03-06T12:13:28.701Z,1225.00
2023-03-06T12:14:28.687Z,2345.00
2023-03-06T12:15:28.715Z,2383.00
2023-03-06T12:16:28.719Z,2503.00
2023-03-06T12:17:28.648Z,2486.00
2023-03-06T12:18:28.620Z,2458.00
2023-03-06T12:19:28.627Z,2526.00
2023-03-06T12:20:28.621Z,2486.00
2023-03-06T12:21:28.618Z,2476.00
2023-03-06T12:22:30.776Z,2459.00
2023-03-06T12:23:28.581Z,2456.00
2023-03-06T12:24:28.551Z,2452.00
2023-03-06T12:25:28.560Z,2306.00
2023-03-06T12:26:28.545Z,2406.00
2023-03-06T12:27:28.552Z,2426.00
2023-03-06T12:28:28.525Z,3067.00
2023-03-06T12:29:28.558Z,1766.00
2023-03-06T12:30:28.522Z,2616.00
2023-03-06T12:31:28.527Z,2463.00
2023-03-06T12:32:28.540Z,2418.00
2023-03-06T12:33:28.516Z,2816.00
2023-03-06T12:34:28.453Z,2920.00
2023-03-06T12:35:28.454Z,2542.00
2023-03-06T12:36:28.454Z,2281.00
2023-03-06T12:37:28.429Z,2126.00
2023-03-06T12:38:28.422Z,2019.00
2023-03-06T12:39:28.416Z,2037.00
2023-03-06T12:40:28.419Z,2031.00
2023-03-06T12:41:28.401Z,2017.00
2023-03-06T12:42:28.368Z,1942.00
2023-03-06T12:43:28.405Z,1251.00
2023-03-06T12:44:28.349Z,1813.00
2023-03-06T12:45:28.378Z,1671.00
2023-03-06T12:46:28.428Z,1573.00
2023-03-06T12:47:28.324Z,1998.00